Cusco, Peru
Current Conditions -  °F | °C
As of 6:30 AM on Sunday 21 Dec 2014 (Local Time) from SPZO Reporting Station
Broken Clouds Broken Clouds  
Wind Chill: 54°   Ceiling: 7000
Heat Index: 54°   Visibility: 6mi
Dew Point: 46°   Wind: 2mph
Humidity: 77%   Direction: NA
Pressure: 30.42"   Gusts: NA
Location:  13.52°S, 71.99°W
Report Text: SPZO 211130Z VRB02KT 9999 FEW040 SCT050 BKN070 12/08 Q1030
Loading
Personal Weather Stations






























Interactive Weather Map New forecast layout! Learn more

10-Day Weather Forecast

Advertisements
Track Severe Weather on mobile